Time;durP1;ratioP1;P1;durP2;ratioP2;P2;SDS_P1;SDS_P2;PMS_P1;PMS_P2;Temp;Humidity;BMP_temperature;BMP_pressure;BME280_temperature;BME280_humidity;BME280_pressure;Samples;Min_cycle;Max_cycle;Signal;HPM_P1;HPM_P2
2021/05/21 00:00:57;;;;;;;3.40;2.60;;;;;;;9.20;100.00;96388.03;4930949;28;20450;-65
2021/05/21 00:03:26;;;;;;;3.50;2.80;;;;;;;9.32;100.00;96380.84;4951059;28;20082;-65
2021/05/21 00:05:56;;;;;;;5.32;3.22;;;;;;;9.39;100.00;96389.84;4946425;28;20051;-65
2021/05/21 00:08:24;;;;;;;2.78;2.58;;;;;;;9.71;100.00;96390.38;4945728;28;20070;-64
2021/05/21 00:10:53;;;;;;;3.05;2.85;;;;;;;9.47;100.00;96384.72;4947571;28;20134;-64
2021/05/21 00:13:21;;;;;;;2.90;2.70;;;;;;;9.45;100.00;96384.03;4948456;28;20078;-65
2021/05/21 00:15:49;;;;;;;2.97;2.78;;;;;;;9.40;100.00;96381.00;4942580;28;20075;-63
2021/05/21 00:18:17;;;;;;;4.03;2.40;;;;;;;9.47;100.00;96376.84;4948192;28;20510;-65
2021/05/21 00:20:45;;;;;;;3.88;2.75;;;;;;;9.46;100.00;96370.75;4946566;28;20043;-64
2021/05/21 00:23:16;;;;;;;2.58;2.38;;;;;;;8.87;100.00;96373.47;4944441;28;20066;-65
2021/05/21 00:25:44;;;;;;;2.78;2.53;;;;;;;8.84;100.00;96374.56;4944097;28;20529;-65
2021/05/21 00:28:12;;;;;;;2.65;2.33;;;;;;;8.85;100.00;96362.28;4946238;28;20077;-64
2021/05/21 00:30:40;;;;;;;3.28;2.78;;;;;;;8.93;100.00;96357.16;4946794;28;20070;-64
2021/05/21 00:33:09;;;;;;;3.13;2.83;;;;;;;8.94;100.00;96356.16;4945897;28;20768;-65
2021/05/21 00:35:37;;;;;;;2.80;2.60;;;;;;;8.91;100.00;96351.19;4934749;28;20067;-65
2021/05/21 00:38:07;;;;;;;3.17;2.92;;;;;;;8.90;100.00;96350.34;4938388;28;20066;-65
2021/05/21 00:40:36;;;;;;;3.15;2.95;;;;;;;8.92;100.00;96342.34;4946219;28;20473;-64
2021/05/21 00:43:04;;;;;;;3.95;2.80;;;;;;;9.00;100.00;96335.41;4944741;28;20075;-65
2021/05/21 00:45:33;;;;;;;3.20;2.83;;;;;;;8.94;100.00;96329.88;4950049;28;20043;-65
2021/05/21 00:48:01;;;;;;;2.83;2.63;;;;;;;9.03;100.00;96335.16;4945491;28;21543;-65
2021/05/21 00:50:29;;;;;;;3.88;2.67;;;;;;;8.89;100.00;96330.28;4948985;28;20063;-65
2021/05/21 00:52:58;;;;;;;3.15;2.88;;;;;;;8.83;100.00;96325.56;4944439;28;20640;-64
2021/05/21 00:55:26;;;;;;;2.70;2.50;;;;;;;8.77;100.00;96321.72;4946503;28;20753;-64
2021/05/21 00:57:56;;;;;;;2.75;2.47;;;;;;;8.91;100.00;96317.00;4944413;28;20086;-65
2021/05/21 01:00:24;;;;;;;3.42;2.72;;;;;;;9.02;100.00;96316.88;4947272;28;20069;-65
2021/05/21 01:02:52;;;;;;;3.22;2.60;;;;;;;8.82;100.00;96312.59;4948219;28;20078;-65
2021/05/21 01:05:20;;;;;;;2.65;2.45;;;;;;;8.74;100.00;96313.25;4944921;28;20067;-65
2021/05/21 01:07:48;;;;;;;2.60;2.40;;;;;;;8.75;100.00;96314.94;4949086;28;20102;-65
2021/05/21 01:10:16;;;;;;;2.92;2.72;;;;;;;8.75;100.00;96312.28;4947054;28;20078;-65
2021/05/21 01:12:45;;;;;;;2.40;2.20;;;;;;;8.68;100.00;96317.28;4946577;28;20593;-65
2021/05/21 01:15:15;;;;;;;4.38;2.78;;;;;;;8.72;100.00;96309.94;4946223;28;20082;-65
2021/05/21 01:17:43;;;;;;;2.90;2.70;;;;;;;8.75;100.00;96309.66;4948040;28;20067;-65
2021/05/21 01:20:13;;;;;;;2.80;2.60;;;;;;;8.87;100.00;96303.28;4944618;28;20066;-65
2021/05/21 01:22:42;;;;;;;3.03;2.80;;;;;;;8.73;100.00;96301.91;4945820;28;20078;-65
2021/05/21 01:25:11;;;;;;;2.92;2.70;;;;;;;8.76;100.00;96304.25;4942884;28;20474;-65
2021/05/21 01:27:39;;;;;;;2.80;2.60;;;;;;;8.77;100.00;96300.69;4946631;28;20105;-64
2021/05/21 01:30:09;;;;;;;2.72;2.53;;;;;;;8.58;100.00;96303.28;4945774;28;20086;-65
2021/05/21 01:32:37;;;;;;;3.20;3.00;;;;;;;8.63;100.00;96297.59;4943673;28;20411;-64
2021/05/21 01:35:06;;;;;;;2.60;2.40;;;;;;;8.54;100.00;96294.84;4945165;28;20071;-65
2021/05/21 01:37:35;;;;;;;2.90;2.70;;;;;;;8.64;100.00;96299.28;4947977;28;20274;-65
2021/05/21 01:40:05;;;;;;;3.65;2.75;;;;;;;8.58;100.00;96289.31;4945659;28;20043;-65
2021/05/21 01:42:33;;;;;;;2.97;2.53;;;;;;;8.61;100.00;96284.63;4949471;28;20090;-64
2021/05/21 01:45:02;;;;;;;2.70;2.47;;;;;;;8.64;100.00;96279.09;4943174;28;20340;-65
2021/05/21 01:47:30;;;;;;;2.90;2.70;;;;;;;8.60;100.00;96267.16;4943347;28;20039;-65
2021/05/21 01:49:58;;;;;;;2.67;2.47;;;;;;;8.55;100.00;96264.13;4944608;28;20067;-65
2021/05/21 01:52:26;;;;;;;2.67;2.47;;;;;;;8.48;100.00;96265.66;4945152;28;20064;-65
2021/05/21 01:54:55;;;;;;;2.80;2.60;;;;;;;8.37;100.00;96268.38;4931368;28;20101;-65
2021/05/21 01:57:24;;;;;;;3.83;2.80;;;;;;;8.43;100.00;96263.44;4944790;28;20098;-65
2021/05/21 01:59:52;;;;;;;3.63;2.63;;;;;;;8.35;100.00;96265.84;4946660;28;20551;-65
2021/05/21 02:02:21;;;;;;;2.95;2.75;;;;;;;8.38;100.00;96251.66;4930396;28;20517;-65
2021/05/21 02:04:49;;;;;;;2.95;2.65;;;;;;;8.39;100.00;96246.25;4947654;28;20073;-66
2021/05/21 02:07:18;;;;;;;2.70;2.50;;;;;;;8.33;100.00;96234.47;4944791;28;20082;-65
2021/05/21 02:09:53;;;;;;;2.60;2.40;;;;;;;8.31;100.00;96223.25;4945829;28;20463;-65
2021/05/21 02:12:22;;;;;;;2.80;2.60;;;;;;;8.36;100.00;96228.09;4944006;28;20063;-65
2021/05/21 02:14:53;;;;;;;2.60;2.42;;;;;;;8.32;100.00;96232.78;4947327;28;20054;-65
2021/05/21 02:17:21;;;;;;;5.17;2.73;;;;;;;8.28;100.00;96231.41;4946257;28;20059;-66
2021/05/21 02:19:50;;;;;;;4.25;2.67;;;;;;;8.21;100.00;96229.47;4948033;28;20070;-65
2021/05/21 02:22:20;;;;;;;2.63;2.42;;;;;;;8.24;100.00;96235.28;4946565;28;20078;-65
2021/05/21 02:24:49;;;;;;;;;;;;;;;8.18;100.00;96230.56;4948395;28;20530;-65
2021/05/21 02:27:18;;;;;;;2.80;2.60;;;;;;;8.21;100.00;96232.09;4949170;28;20273;-66
2021/05/21 02:29:46;;;;;;;2.80;2.55;;;;;;;8.11;100.00;96232.06;4929804;28;20536;-64
2021/05/21 02:32:15;;;;;;;2.75;2.55;;;;;;;8.23;100.00;96222.31;4937898;28;20069;-66
2021/05/21 02:34:44;;;;;;;2.78;2.58;;;;;;;8.12;100.00;96212.75;4950622;28;20086;-65
2021/05/21 02:37:12;;;;;;;2.70;2.50;;;;;;;8.17;100.00;96207.91;4944075;28;20079;-65
2021/05/21 02:39:40;;;;;;;3.25;2.50;;;;;;;8.17;100.00;96207.91;4949538;28;20086;-65
2021/05/21 02:42:09;;;;;;;3.10;2.83;;;;;;;7.90;100.00;96207.72;4947342;28;20075;-65
2021/05/21 02:44:38;;;;;;;2.78;2.58;;;;;;;8.02;100.00;96202.22;4933725;28;20071;-66
2021/05/21 02:47:07;;;;;;;2.50;2.30;;;;;;;8.09;100.00;96215.63;4941529;28;20074;-65
2021/05/21 02:49:36;;;;;;;2.55;2.35;;;;;;;8.17;100.00;96213.16;4946038;28;20070;-65
2021/05/21 02:52:05;;;;;;;5.85;2.40;;;;;;;8.19;100.00;96213.00;4945823;28;20051;-65
2021/05/21 02:54:33;;;;;;;2.58;2.38;;;;;;;8.28;100.00;96212.19;4949923;28;20083;-65
2021/05/21 02:57:02;;;;;;;2.75;2.55;;;;;;;8.28;100.00;96218.28;4946687;29;20431;-65
2021/05/21 02:59:31;;;;;;;3.65;2.40;;;;;;;8.39;100.00;96219.16;4944270;28;20069;-65
2021/05/21 03:01:59;;;;;;;2.60;2.40;;;;;;;8.07;100.00;96222.81;4942179;28;20063;-65
2021/05/21 03:04:27;;;;;;;2.80;2.60;;;;;;;8.11;100.00;96218.94;4941171;28;20498;-65
2021/05/21 03:06:57;;;;;;;2.72;2.53;;;;;;;8.35;100.00;96204.59;4933383;28;20148;-65
2021/05/21 03:09:25;;;;;;;3.00;2.55;;;;;;;8.25;100.00;96207.22;4949392;28;20082;-66
2021/05/21 03:11:53;;;;;;;2.70;2.47;;;;;;;8.38;100.00;96197.31;4947822;28;20071;-65
2021/05/21 03:14:22;;;;;;;3.70;2.22;;;;;;;8.44;100.00;96198.56;4937894;28;20074;-65
2021/05/21 03:16:50;;;;;;;2.80;2.60;;;;;;;8.39;100.00;96201.59;4949315;28;20094;-65
2021/05/21 03:19:19;;;;;;;2.67;2.42;;;;;;;8.49;100.00;96193.72;4945858;28;20077;-65
2021/05/21 03:21:47;;;;;;;4.25;2.60;;;;;;;8.58;100.00;96203.41;4990460;23;20112;-47
2021/05/21 03:24:17;;;;;;;3.92;2.83;;;;;;;8.52;100.00;96193.44;5007576;28;20547;-47
2021/05/21 03:26:46;;;;;;;3.33;3.03;;;;;;;8.53;100.00;96193.31;5008098;28;20046;-48
2021/05/21 03:29:15;;;;;;;2.60;2.40;;;;;;;8.41;100.00;96185.69;5020324;28;20069;-47
2021/05/21 03:31:44;;;;;;;2.92;2.72;;;;;;;8.43;100.00;96170.59;5027599;28;20133;-50
2021/05/21 03:34:13;;;;;;;2.97;2.67;;;;;;;8.37;100.00;96171.16;5038994;28;20072;-48
2021/05/21 03:36:42;;;;;;;2.67;2.45;;;;;;;8.48;100.00;96158.72;5047212;28;20072;-46
2021/05/21 03:39:10;;;;;;;3.65;2.45;;;;;;;8.33;100.00;96157.47;5041764;28;20064;-48
2021/05/21 03:41:39;;;;;;;4.93;2.35;;;;;;;8.37;100.00;96156.22;5042579;28;20044;-54
2021/05/21 03:44:08;;;;;;;2.85;2.00;;;;;;;8.37;100.00;96161.47;5046330;28;20068;-47
2021/05/21 03:46:37;;;;;;;5.70;2.22;;;;;;;8.32;100.00;96156.59;5040594;28;20513;-48
2021/05/21 03:49:05;;;;;;;2.65;2.45;;;;;;;8.18;100.00;96140.44;5048225;28;20075;-48
2021/05/21 03:51:34;;;;;;;2.50;2.30;;;;;;;8.03;100.00;96132.97;5045135;28;20073;-47
2021/05/21 03:54:03;;;;;;;2.78;2.58;;;;;;;7.94;100.00;96132.97;5043747;28;20461;-54
2021/05/21 03:56:31;;;;;;;2.22;2.03;;;;;;;7.89;100.00;96122.88;5043651;28;20052;-49
2021/05/21 03:59:01;;;;;;;2.45;2.25;;;;;;;7.95;100.00;96137.22;5042511;28;20073;-55
2021/05/21 04:01:30;;;;;;;5.10;2.13;;;;;;;8.16;100.00;96127.47;5045440;28;20593;-49
2021/05/21 04:04:01;;;;;;;3.00;2.42;;;;;;;8.20;100.00;96126.22;5048478;28;20069;-48
2021/05/21 04:06:29;;;;;;;2.42;2.33;;;;;;;8.28;100.00;96123.72;5044152;28;20077;-51
2021/05/21 04:08:58;;;;;;;3.45;2.20;;;;;;;8.42;100.00;96124.28;5044452;28;20061;-49
2021/05/21 04:11:26;;;;;;;2.10;2.00;;;;;;;8.64;100.00;96125.81;5049919;28;20079;-47
2021/05/21 04:13:54;;;;;;;2.20;2.00;;;;;;;8.86;100.00;96132.53;5046387;28;20067;-57
2021/05/21 04:16:24;;;;;;;2.47;2.28;;;;;;;9.54;100.00;96130.50;5043401;28;20057;-50
2021/05/21 04:18:53;;;;;;;2.42;2.30;;;;;;;9.87;100.00;96113.22;5044163;28;20550;-49
2021/05/21 04:21:21;;;;;;;3.42;2.08;;;;;;;10.66;100.00;96106.38;5038191;28;20081;-48
2021/05/21 04:23:49;;;;;;;3.00;2.10;;;;;;;10.71;100.00;96113.88;5048368;28;20061;-51
2021/05/21 04:26:17;;;;;;;1.90;1.80;;;;;;;10.71;100.00;96112.03;5040771;28;20065;-55
2021/05/21 04:28:47;;;;;;;1.77;1.67;;;;;;;9.99;100.00;96119.13;5044425;28;20557;-49
2021/05/21 04:31:16;;;;;;;2.95;2.00;;;;;;;10.03;100.00;96103.84;5046883;28;20090;-49
2021/05/21 04:33:46;;;;;;;5.68;2.00;;;;;;;9.89;100.00;96115.75;5045927;28;20530;-57
2021/05/21 04:36:14;;;;;;;4.67;1.73;;;;;;;9.99;100.00;96119.13;5044081;28;20059;-49
2021/05/21 04:38:43;;;;;;;2.63;1.77;;;;;;;9.93;100.00;96106.56;5047922;28;20475;-49
2021/05/21 04:41:11;;;;;;;1.95;1.85;;;;;;;10.14;100.00;96101.00;5046209;28;20076;-49
2021/05/21 04:43:40;;;;;;;3.03;1.80;;;;;;;10.20;100.00;96103.03;5043811;28;20517;-48
2021/05/21 04:46:08;;;;;;;2.17;1.90;;;;;;;10.17;100.00;96098.88;5046380;28;20061;-48
2021/05/21 04:48:36;;;;;;;2.10;1.85;;;;;;;10.36;100.00;96102.38;5043180;28;20056;-53
2021/05/21 04:51:06;;;;;;;2.00;1.90;;;;;;;10.51;100.00;96105.31;5045948;28;20103;-48
2021/05/21 04:53:34;;;;;;;2.08;1.98;;;;;;;10.62;100.00;96091.88;5045884;28;20122;-48
2021/05/21 04:56:02;;;;;;;1.98;1.88;;;;;;;10.77;100.00;96103.53;5042290;28;20079;-48
2021/05/21 04:58:30;;;;;;;1.70;1.60;;;;;;;10.77;100.00;96105.31;5038672;28;20067;-49
2021/05/21 05:00:59;;;;;;;3.92;1.95;;;;;;;10.35;100.00;96117.34;5048733;28;20077;-51
2021/05/21 05:03:27;;;;;;;4.93;1.88;;;;;;;10.79;100.00;96108.63;5042925;28;20068;-48
2021/05/21 05:05:55;;;;;;;1.98;1.83;;;;;;;10.85;100.00;96111.47;5051477;28;20551;-48
2021/05/21 05:08:24;;;;;;;2.10;1.90;;;;;;;11.24;100.00;96102.31;5044047;28;20064;-48
2021/05/21 05:10:53;;;;;;;1.60;1.48;;;;;;;10.95;100.00;96107.91;5046401;28;20083;-51
2021/05/21 05:13:22;;;;;;;8.10;2.17;;;;;;;11.17;100.00;96112.66;5057848;28;20143;-52
2021/05/21 05:15:50;;;;;;;4.38;1.70;;;;;;;11.10;100.00;96116.91;5044422;28;20076;-53
2021/05/21 05:18:36;;;;;;;3.40;1.60;;;;;;;11.59;100.00;96103.94;5043767;28;20075;-49
2021/05/21 05:21:06;;;;;;;2.60;1.70;;;;;;;12.05;100.00;96094.69;5051550;28;20454;-50
2021/05/21 05:23:36;;;;;;;1.70;1.60;;;;;;;11.81;100.00;96102.53;5042608;28;20084;-51
2021/05/21 05:26:04;;;;;;;3.60;1.70;;;;;;;11.96;100.00;96100.13;5043788;28;20122;-51
2021/05/21 05:28:33;;;;;;;1.70;1.60;;;;;;;12.56;100.00;96087.44;5042131;28;20076;-53
2021/05/21 05:31:01;;;;;;;2.53;1.70;;;;;;;12.85;100.00;96088.75;5044818;28;20442;-54
2021/05/21 05:33:29;;;;;;;2.65;1.70;;;;;;;13.26;100.00;96078.91;5043371;28;20080;-59
2021/05/21 05:35:59;;;;;;;2.55;1.60;;;;;;;13.41;100.00;96081.66;5051322;28;20069;-55
2021/05/21 05:38:28;;;;;;;3.33;1.65;;;;;;;13.25;100.00;96073.81;5044389;28;20064;-57
2021/05/21 05:40:57;;;;;;;1.73;1.60;;;;;;;13.14;100.00;96068.81;5047971;28;20110;-55
2021/05/21 05:43:25;;;;;;;1.90;1.50;;;;;;;13.84;100.00;96076.03;5043417;28;20077;-48
2021/05/21 05:45:54;;;;;;;1.63;1.30;;;;;;;14.02;100.00;96073.91;5037462;28;20507;-51
2021/05/21 05:48:22;;;;;;;1.98;1.48;;;;;;;14.04;100.00;96071.06;5054196;28;20079;-53
2021/05/21 05:50:51;;;;;;;2.30;1.55;;;;;;;13.45;100.00;96077.66;5043117;28;20514;-56
2021/05/21 05:53:20;;;;;;;2.60;1.33;;;;;;;13.69;100.00;96076.72;5048721;28;20056;-51
2021/05/21 05:55:49;;;;;;;3.63;1.50;;;;;;;14.01;100.00;96070.44;5052829;28;20060;-54
2021/05/21 05:58:18;;;;;;;2.35;1.40;;;;;;;14.13;100.00;96062.91;5047490;28;20084;-55
2021/05/21 06:00:46;;;;;;;2.65;1.48;;;;;;;13.40;100.00;96068.59;5047763;28;20068;-56
2021/05/21 06:03:31;;;;;;;2.33;1.40;;;;;;;14.03;100.00;96054.34;5053239;28;20072;-53
2021/05/21 06:06:00;;;;;;;1.92;1.42;;;;;;;14.40;100.00;96053.59;5046977;28;20099;-52
2021/05/21 06:08:48;;;;;;;3.20;1.45;;;;;;;14.64;100.00;96059.72;5043695;28;20072;-54
2021/05/21 06:11:16;;;;;;;1.65;1.38;;;;;;;14.52;100.00;96058.47;5051411;28;20072;-59
2021/05/21 06:13:45;;;;;;;2.38;1.40;;;;;;;14.69;100.00;96058.19;5049025;28;20504;-56
2021/05/21 06:16:15;;;;;;;1.17;1.05;;;;;;;13.99;100.00;96050.41;5043863;28;20071;-56
2021/05/21 06:18:43;;;;;;;1.40;1.30;;;;;;;14.65;100.00;96043.59;5048347;28;20076;-57
2021/05/21 06:21:11;;;;;;;2.40;1.90;;;;;;;14.80;100.00;96045.47;5045271;28;20548;-52
2021/05/21 06:23:41;;;;;;;3.40;1.63;;;;;;;14.49;100.00;96043.75;5043533;28;20053;-49
2021/05/21 06:26:17;;;;;;;2.42;1.70;;;;;;;14.76;100.00;96045.00;5043987;28;20069;-49
2021/05/21 06:28:46;;;;;;;2.78;1.60;;;;;;;15.18;100.00;96033.78;5049232;28;20057;-53
2021/05/21 06:31:15;;;;;;;2.77;1.20;;;;;;;15.18;100.00;96036.44;5043167;28;20091;-51
2021/05/21 06:33:43;;;;;;;1.83;1.30;;;;;;;14.72;100.00;96035.75;5047503;28;20085;-51
2021/05/21 06:36:12;;;;;;;1.58;1.25;;;;;;;15.27;100.00;96028.34;5043332;28;20068;-51
2021/05/21 06:38:41;;;;;;;4.78;1.50;;;;;;;16.08;100.00;96021.16;5046139;28;20071;-54
2021/05/21 06:41:10;;;;;;;2.10;1.40;;;;;;;16.42;95.79;96027.59;5046400;28;20057;-54
2021/05/21 06:43:38;;;;;;;1.77;1.38;;;;;;;16.47;97.75;96020.69;5042590;28;20083;-50
2021/05/21 06:46:07;;;;;;;3.90;1.20;;;;;;;17.09;85.09;96019.91;5046586;28;20037;-52
2021/05/21 06:48:37;;;;;;;4.03;1.77;;;;;;;16.92;92.79;96012.44;5049553;28;20069;-52
2021/05/21 06:51:07;;;;;;;2.90;1.27;;;;;;;16.47;91.25;96022.53;5049069;28;21327;-56
2021/05/21 06:53:35;;;;;;;6.50;1.35;;;;;;;16.38;89.02;96012.03;5037653;28;20083;-53
2021/05/21 06:56:04;;;;;;;5.53;1.52;;;;;;;16.61;81.07;96011.78;5051543;28;20345;-52
2021/05/21 06:58:32;;;;;;;1.25;1.10;;;;;;;16.96;77.49;96011.84;5045106;28;20075;-56
2021/05/21 07:01:03;;;;;;;2.10;1.30;;;;;;;17.03;77.13;96004.75;5053021;28;20102;-54
2021/05/21 07:03:32;;;;;;;4.90;1.50;;;;;;;16.52;86.48;96002.31;5047333;28;20071;-53
2021/05/21 07:06:00;;;;;;;2.35;1.17;;;;;;;16.21;77.28;95993.81;5047879;28;20069;-54
2021/05/21 07:08:29;;;;;;;2.65;1.55;;;;;;;16.23;84.24;96000.63;5050951;28;20061;-55
2021/05/21 07:10:58;;;;;;;2.80;1.27;;;;;;;16.26;87.05;96002.06;5046374;28;20069;-53
2021/05/21 07:13:29;;;;;;;2.58;1.58;;;;;;;16.15;86.74;95998.09;5042844;28;20065;-53
2021/05/21 07:15:57;;;;;;;3.63;1.38;;;;;;;15.88;93.64;96000.50;5051254;28;20136;-52
2021/05/21 07:18:26;;;;;;;1.90;1.25;;;;;;;15.72;96.88;96003.38;5046240;28;20075;-56
2021/05/21 07:21:01;;;;;;;1.88;1.67;;;;;;;16.13;94.75;96000.09;5046545;28;20077;-54
2021/05/21 07:23:29;;;;;;;1.50;1.40;;;;;;;15.43;87.82;95999.75;5043704;28;20086;-59
2021/05/21 07:25:58;;;;;;;1.88;1.50;;;;;;;15.58;83.58;95994.41;5044072;28;20071;-54
2021/05/21 07:28:26;;;;;;;2.03;1.40;;;;;;;15.36;83.44;95990.88;5038306;28;20044;-55
2021/05/21 07:30:55;;;;;;;3.08;1.55;;;;;;;15.20;89.07;95989.25;5053265;28;20458;-55
2021/05/21 07:33:23;;;;;;;2.03;1.40;;;;;;;15.40;83.68;95991.34;5045849;28;20527;-55
2021/05/21 07:35:52;;;;;;;2.95;1.50;;;;;;;15.53;85.93;95983.53;5047283;28;20049;-57
2021/05/21 07:38:21;;;;;;;4.25;1.60;;;;;;;15.96;82.90;95977.44;5045695;28;20450;-55
2021/05/21 07:40:50;;;;;;;2.78;1.52;;;;;;;16.14;85.06;95975.19;5045016;28;20110;-57
2021/05/21 07:43:18;;;;;;;1.40;1.30;;;;;;;15.84;87.13;95982.47;5048842;28;20471;-56
2021/05/21 07:45:47;;;;;;;3.63;1.50;;;;;;;15.37;92.88;95978.41;5042722;28;20078;-57
2021/05/21 07:48:15;;;;;;;2.42;1.50;;;;;;;15.83;89.31;95975.50;5044631;28;20087;-56
2021/05/21 07:50:44;;;;;;;3.13;1.50;;;;;;;15.76;99.67;95971.91;5050302;28;20068;-53
2021/05/21 07:53:12;;;;;;;2.50;1.30;;;;;;;16.26;97.66;95960.31;5045556;28;20033;-52
2021/05/21 07:55:44;;;;;;;1.30;1.20;;;;;;;16.50;92.99;95959.06;5042945;28;20502;-55
2021/05/21 07:58:14;;;;;;;2.38;1.40;;;;;;;16.44;98.50;95951.03;5046997;28;20056;-58
2021/05/21 08:00:44;;;;;;;1.40;1.30;;;;;;;16.66;95.58;95959.81;5038579;28;20515;-58
2021/05/21 08:03:15;;;;;;;3.20;1.30;;;;;;;16.47;91.62;95963.97;5049951;28;20092;-51
2021/05/21 08:05:43;;;;;;;4.22;1.20;;;;;;;16.61;87.30;95953.22;5040499;28;20068;-51
2021/05/21 08:08:27;;;;;;;4.82;1.48;;;;;;;16.90;76.23;95953.22;5043845;28;20036;-51
2021/05/21 08:10:57;;;;;;;1.40;1.13;;;;;;;16.70;77.18;95967.22;5040614;28;20064;-55
2021/05/21 08:13:26;;;;;;;1.30;1.08;;;;;;;16.70;82.65;95972.53;5052149;28;20436;-52
2021/05/21 08:15:55;;;;;;;1.65;1.23;;;;;;;16.59;84.38;95955.25;5041216;28;20084;-52
2021/05/21 08:18:24;;;;;;;1.73;1.27;;;;;;;17.40;80.80;95941.34;5047500;28;20081;-50
2021/05/21 08:20:52;;;;;;;1.67;1.15;;;;;;;17.70;71.47;95939.19;5044976;28;20079;-52
2021/05/21 08:23:21;;;;;;;3.13;1.40;;;;;;;17.85;66.39;95931.03;5044882;28;20533;-51
2021/05/21 08:25:49;;;;;;;2.13;1.10;;;;;;;18.25;60.88;95923.88;5046690;28;20091;-49
2021/05/21 08:28:19;;;;;;;3.42;1.27;;;;;;;18.12;78.25;95933.72;5043706;28;20068;-49
2021/05/21 08:30:47;;;;;;;1.38;1.10;;;;;;;18.66;63.20;95946.84;5046801;28;20473;-56
2021/05/21 08:33:16;;;;;;;2.33;1.20;;;;;;;18.58;63.73;95946.22;5050438;28;20094;-54
2021/05/21 08:35:44;;;;;;;2.35;1.17;;;;;;;17.76;79.18;95943.75;5041307;28;20048;-50
2021/05/21 08:38:14;;;;;;;3.03;1.30;;;;;;;17.95;91.19;95934.13;5045040;28;20127;-55
2021/05/21 08:40:42;;;;;;;2.40;1.33;;;;;;;17.59;74.91;95930.97;5045387;28;20060;-53
2021/05/21 08:43:12;;;;;;;2.17;1.50;;;;;;;17.67;83.37;95928.09;5045694;28;20060;-50
2021/05/21 08:45:41;;;;;;;1.50;1.30;;;;;;;17.50;79.62;95928.47;5046655;28;20061;-52
2021/05/21 08:48:18;;;;;;;2.35;1.20;;;;;;;17.65;74.35;95928.31;5043691;28;20067;-49
2021/05/21 08:50:49;;;;;;;1.20;1.05;;;;;;;17.32;74.74;95922.88;5042745;28;20072;-48
2021/05/21 08:53:18;;;;;;;2.38;1.30;;;;;;;17.42;82.67;95923.31;5040565;28;20132;-55
2021/05/21 08:55:46;;;;;;;3.08;1.20;;;;;;;17.17;81.87;95925.69;5049201;28;20068;-52
2021/05/21 08:58:32;;;;;;;4.57;1.30;;;;;;;17.20;78.74;95925.28;5037725;28;20625;-53
2021/05/21 09:01:01;;;;;;;3.58;1.20;;;;;;;17.12;79.60;95933.47;5048652;28;20065;-51
2021/05/21 09:03:31;;;;;;;1.88;1.20;;;;;;;16.79;85.69;95939.44;5048480;28;20032;-54
2021/05/21 09:06:14;;;;;;;2.85;1.52;;;;;;;16.66;90.45;95933.19;5045672;28;20095;-53
2021/05/21 09:08:45;;;;;;;4.10;1.50;;;;;;;16.87;84.74;95930.47;5040291;28;20064;-54
2021/05/21 09:11:24;;;;;;;2.90;1.33;;;;;;;17.19;81.69;95912.16;5043116;28;20079;-60
2021/05/21 09:13:58;;;;;;;1.58;1.35;;;;;;;17.03;78.92;95908.84;5043717;28;20078;-56
2021/05/21 09:16:28;;;;;;;1.75;1.30;;;;;;;17.59;74.19;95910.44;5047986;28;20061;-51
2021/05/21 09:19:08;;;;;;;2.55;1.63;;;;;;;17.55;75.62;95914.56;5038785;28;20050;-53
2021/05/21 09:22:02;;;;;;;2.70;1.40;;;;;;;17.26;63.06;95903.16;5053574;22;20619;-65
2021/05/21 09:24:34;;;;;;;2.70;1.13;;;;;;;17.93;62.46;95898.84;4984977;28;20092;-64
2021/05/21 09:27:04;;;;;;;1.73;1.27;;;;;;;17.90;60.95;95898.44;4987178;28;20185;-64
2021/05/21 09:29:39;;;;;;;3.10;1.30;;;;;;;17.89;60.54;95902.09;4968820;28;20062;-62
2021/05/21 09:32:20;;;;;;;3.17;1.30;;;;;;;18.69;58.05;95898.34;4978759;28;20049;-64
2021/05/21 09:35:03;;;;;;;1.30;1.02;;;;;;;19.21;56.01;95906.44;4982667;28;20480;-64
2021/05/21 09:37:32;;;;;;;1.50;1.17;;;;;;;18.94;55.07;95917.22;4981121;28;20069;-64
2021/05/21 09:40:07;;;;;;;0.93;0.90;;;;;;;18.86;56.87;95911.31;4979389;28;20598;-64
2021/05/21 09:42:57;;;;;;;1.67;1.05;;;;;;;18.54;60.92;95911.09;4988611;28;20074;-64
2021/05/21 09:45:31;;;;;;;1.25;1.10;;;;;;;18.65;61.55;95897.16;4983126;28;21602;-65
2021/05/21 09:48:01;;;;;;;1.10;1.00;;;;;;;18.56;57.72;95898.38;4977093;28;20058;-64
2021/05/21 09:50:39;;;;;;;2.53;1.10;;;;;;;18.26;59.88;95888.16;4985822;28;20449;-65
2021/05/21 09:53:14;;;;;;;1.38;1.08;;;;;;;18.38;62.29;95884.88;4984206;28;20066;-65
2021/05/21 09:55:44;;;;;;;1.90;1.13;;;;;;;18.26;66.86;95890.00;4978905;28;20070;-63
2021/05/21 09:58:27;;;;;;;2.30;1.00;;;;;;;18.30;66.84;95887.72;4986395;28;20057;-64
2021/05/21 10:01:11;;;;;;;3.13;1.02;;;;;;;18.16;71.54;95892.25;4974359;28;20050;-65
2021/05/21 10:03:42;;;;;;;2.03;1.10;;;;;;;18.03;68.44;95885.06;4982093;28;20090;-65
2021/05/21 10:06:10;;;;;;;;;;;;;;;18.20;71.59;95889.00;4985273;28;20082;-63
2021/05/21 10:08:39;;;;;;;2.65;1.02;;;;;;;18.39;70.34;95890.00;4981007;28;19957;-64
2021/05/21 10:11:08;;;;;;;3.53;1.15;;;;;;;18.40;66.12;95896.97;4979241;28;20077;-64
2021/05/21 10:13:37;;;;;;;1.70;1.30;;;;;;;18.38;75.31;95891.03;4977500;28;20109;-64
2021/05/21 10:16:06;;;;;;;2.38;1.10;;;;;;;18.53;79.42;95887.31;4981124;28;20073;-65
2021/05/21 10:18:35;;;;;;;1.25;1.15;;;;;;;18.61;70.64;95884.41;4985711;28;20038;-64
2021/05/21 10:21:05;;;;;;;1.25;0.90;;;;;;;18.06;62.32;95890.00;4980712;28;20070;-64
2021/05/21 10:23:36;;;;;;;2.42;1.20;;;;;;;18.03;69.46;95893.06;4977643;28;20282;-64
2021/05/21 10:26:08;;;;;;;1.88;1.20;;;;;;;18.26;73.70;95882.81;4978297;28;20058;-64
2021/05/21 10:28:38;;;;;;;1.23;1.08;;;;;;;18.38;70.29;95879.53;4979225;28;20063;-65
2021/05/21 10:31:09;;;;;;;2.08;1.20;;;;;;;18.48;77.28;95885.25;4974751;28;20062;-65
2021/05/21 10:33:37;;;;;;;;;;;;;;;18.23;73.81;95890.41;4979833;28;20082;-63
2021/05/21 10:36:29;;;;;;;0.98;0.90;;;;;;;18.15;66.34;95893.28;4986581;28;19921;-64
2021/05/21 10:39:04;;;;;;;1.25;1.10;;;;;;;18.09;65.62;95896.78;4980483;28;20482;-64
2021/05/21 10:41:32;;;;;;;1.20;1.10;;;;;;;17.93;71.96;95895.34;4982186;28;20078;-64
2021/05/21 10:44:00;;;;;;;2.25;1.00;;;;;;;17.91;76.50;95905.41;4985333;28;20520;-65
2021/05/21 10:46:31;;;;;;;1.23;0.98;;;;;;;18.02;78.90;95907.44;4983362;28;20077;-65
2021/05/21 10:49:00;;;;;;;2.95;1.10;;;;;;;17.97;75.29;95908.06;4978843;28;20038;-63
2021/05/21 10:51:48;;;;;;;2.25;1.00;;;;;;;17.23;86.64;95916.06;4983398;28;20075;-64
2021/05/21 10:54:28;;;;;;;1.23;1.13;;;;;;;17.00;83.73;95919.06;4984795;28;20336;-64
2021/05/21 10:57:09;;;;;;;5.25;1.50;;;;;;;16.63;95.62;95910.44;4976489;28;20591;-64
2021/05/21 10:59:41;;;;;;;1.77;1.10;;;;;;;16.44;97.08;95914.59;4984728;28;20069;-64
2021/05/21 11:02:12;;;;;;;1.40;1.30;;;;;;;16.44;100.00;95925.25;4982962;28;20065;-64
2021/05/21 11:04:41;;;;;;;1.40;1.30;;;;;;;16.05;100.00;95936.41;4986640;28;20519;-64
2021/05/21 11:07:11;;;;;;;1.67;1.38;;;;;;;16.20;100.00;95934.47;4980364;28;20085;-64
2021/05/21 11:09:44;;;;;;;2.17;1.38;;;;;;;16.21;100.00;95948.59;4986229;28;20073;-63
2021/05/21 11:12:15;;;;;;;2.72;1.35;;;;;;;15.94;100.00;95958.22;4980496;28;20070;-64
2021/05/21 11:14:45;;;;;;;1.90;1.30;;;;;;;15.65;100.00;95970.56;4991938;28;20546;-64
2021/05/21 11:17:16;;;;;;;1.73;1.50;;;;;;;15.59;100.00;95964.19;4986218;28;20042;-64
2021/05/21 11:19:54;;;;;;;2.10;1.35;;;;;;;15.21;100.00;95979.47;4981205;28;20085;-64
2021/05/21 11:22:29;;;;;;;3.15;1.50;;;;;;;14.96;100.00;95989.53;4981266;28;20366;-64
2021/05/21 11:25:01;;;;;;;1.55;1.45;;;;;;;14.67;100.00;95987.72;4989188;28;20065;-63
2021/05/21 11:27:31;;;;;;;1.45;1.35;;;;;;;14.54;100.00;95990.16;4985148;28;20078;-63
2021/05/21 11:30:05;;;;;;;2.03;1.17;;;;;;;14.35;100.00;95979.03;4983386;28;20047;-64
2021/05/21 11:32:34;;;;;;;1.30;1.20;;;;;;;14.08;100.00;95988.38;4981685;28;20085;-63
2021/05/21 11:35:02;;;;;;;1.30;1.20;;;;;;;14.04;100.00;95991.53;4998172;28;20114;-64
2021/05/21 11:37:32;;;;;;;2.78;1.40;;;;;;;13.98;100.00;96001.88;4979955;28;20073;-64
2021/05/21 11:40:02;;;;;;;1.88;1.30;;;;;;;13.92;100.00;96005.22;4978676;28;20070;-64
2021/05/21 11:42:31;;;;;;;;;;;;;;;14.00;100.00;96004.31;4983400;28;20487;-62
2021/05/21 11:44:59;;;;;;;2.25;1.38;;;;;;;14.25;100.00;95992.53;4987146;28;20390;-64